createdAt,value
2018-05-24T00:00:01.866Z,18.90
2018-05-24T00:00:33.083Z,18.45
2018-05-24T00:01:04.296Z,17.73
2018-05-24T00:01:35.567Z,19.65
2018-05-24T00:02:06.776Z,19.02
2018-05-24T00:02:37.992Z,18.85
2018-05-24T00:03:09.257Z,19.37
2018-05-24T00:03:40.481Z,20.02
2018-05-24T00:04:11.693Z,18.95
2018-05-24T00:04:42.900Z,19.55
2018-05-24T00:05:14.137Z,17.45
2018-05-24T00:05:45.361Z,18.02
2018-05-24T00:06:16.622Z,17.75
2018-05-24T00:06:47.883Z,18.52
2018-05-24T00:07:19.102Z,17.77
2018-05-24T00:07:50.343Z,17.30
2018-05-24T00:08:21.571Z,17.33
2018-05-24T00:08:52.780Z,16.20
2018-05-24T00:09:23.993Z,16.75
2018-05-24T00:09:55.211Z,16.60
2018-05-24T00:10:26.464Z,16.85
2018-05-24T00:10:57.673Z,17.65
2018-05-24T00:11:28.891Z,17.35
2018-05-24T00:12:00.105Z,16.58
2018-05-24T00:12:31.341Z,17.60
2018-05-24T00:13:02.548Z,16.67
2018-05-24T00:13:33.739Z,16.08
2018-05-24T00:14:04.957Z,16.40
2018-05-24T00:14:36.308Z,14.75
2018-05-24T00:15:08.441Z,14.07
2018-05-24T00:15:39.648Z,14.27
2018-05-24T00:16:10.861Z,14.43
2018-05-24T00:16:42.073Z,14.07
2018-05-24T00:17:13.316Z,14.07
2018-05-24T00:17:44.544Z,14.43
2018-05-24T00:18:15.770Z,14.75
2018-05-24T00:18:46.993Z,14.30
2018-05-24T00:19:18.206Z,13.50
2018-05-24T00:19:49.485Z,13.82
2018-05-24T00:20:20.714Z,15.00
2018-05-24T00:20:51.970Z,14.18
2018-05-24T00:21:23.185Z,14.18
2018-05-24T00:21:54.396Z,14.07
2018-05-24T00:22:25.620Z,14.32
2018-05-24T00:22:56.847Z,13.85
2018-05-24T00:23:28.109Z,14.18
2018-05-24T00:23:59.324Z,14.15
2018-05-24T00:24:30.529Z,14.02
2018-05-24T00:25:01.746Z,14.60
2018-05-24T00:25:32.958Z,13.88
2018-05-24T00:26:04.169Z,14.95
2018-05-24T00:26:35.390Z,14.68
2018-05-24T00:27:06.608Z,15.18
2018-05-24T00:27:37.885Z,14.38
2018-05-24T00:28:09.096Z,13.95
2018-05-24T00:28:40.308Z,13.93
2018-05-24T00:29:11.527Z,14.00
2018-05-24T00:29:42.754Z,14.52
2018-05-24T00:30:13.984Z,14.35
2018-05-24T00:30:45.192Z,14.07
2018-05-24T00:31:16.387Z,13.95
2018-05-24T00:31:47.596Z,15.25
2018-05-24T00:32:18.815Z,13.40
2018-05-24T00:32:50.096Z,13.32
2018-05-24T00:33:21.317Z,13.93
2018-05-24T00:33:52.532Z,13.88
2018-05-24T00:34:23.760Z,13.20
2018-05-24T00:34:54.996Z,13.27
2018-05-24T00:35:26.245Z,12.65
2018-05-24T00:35:57.473Z,13.13
2018-05-24T00:36:28.689Z,12.77
2018-05-24T00:36:59.881Z,13.60
2018-05-24T00:37:31.102Z,12.90
2018-05-24T00:38:02.412Z,12.25
2018-05-24T00:38:33.631Z,12.77
2018-05-24T00:39:04.849Z,12.95
2018-05-24T00:39:36.065Z,13.02
2018-05-24T00:40:07.311Z,12.75
2018-05-24T00:40:38.558Z,12.63
2018-05-24T00:41:09.787Z,12.95
2018-05-24T00:41:41.000Z,13.38
2018-05-24T00:42:12.217Z,12.95
2018-05-24T00:42:43.467Z,12.93
2018-05-24T00:43:14.693Z,13.05
2018-05-24T00:43:45.907Z,13.95
2018-05-24T00:44:17.159Z,14.10
2018-05-24T00:44:48.400Z,13.18
2018-05-24T00:45:19.683Z,13.57
2018-05-24T00:45:50.942Z,13.68
2018-05-24T00:46:22.153Z,13.68
2018-05-24T00:46:53.383Z,13.27
2018-05-24T00:47:24.596Z,14.32
2018-05-24T00:47:55.901Z,13.68
2018-05-24T00:48:27.113Z,13.45
2018-05-24T00:48:58.321Z,13.45
2018-05-24T00:49:29.534Z,12.98
2018-05-24T00:50:00.792Z,13.30
2018-05-24T00:50:32.094Z,13.95
2018-05-24T00:51:03.301Z,12.77
2018-05-24T00:51:34.513Z,13.02
2018-05-24T00:52:05.737Z,13.55
2018-05-24T00:52:36.949Z,13.32
2018-05-24T00:53:08.167Z,13.48
2018-05-24T00:53:39.393Z,13.75
2018-05-24T00:54:10.604Z,13.27
2018-05-24T00:54:41.952Z,13.35
2018-05-24T00:55:13.122Z,13.05
2018-05-24T00:55:44.345Z,13.65
2018-05-24T00:56:15.562Z,13.95
2018-05-24T00:56:46.777Z,13.32
2018-05-24T00:57:17.989Z,14.18
2018-05-24T00:57:49.209Z,14.40
2018-05-24T00:58:20.485Z,14.20
2018-05-24T00:58:51.690Z,14.25
2018-05-24T00:59:22.906Z,14.00
2018-05-24T00:59:54.133Z,13.98
2018-05-24T01:00:25.357Z,14.50
2018-05-24T01:00:56.566Z,14.35
2018-05-24T01:01:27.790Z,15.45
2018-05-24T01:01:59.006Z,15.23
2018-05-24T01:02:30.225Z,15.10
2018-05-24T01:03:01.443Z,16.02
2018-05-24T01:03:32.702Z,15.88
2018-05-24T01:04:03.926Z,14.85
2018-05-24T01:04:35.175Z,16.00
2018-05-24T01:05:06.383Z,15.23
2018-05-24T01:05:38.165Z,15.23
2018-05-24T01:06:09.425Z,14.87
2018-05-24T01:06:40.719Z,15.90
2018-05-24T01:07:11.908Z,15.80
2018-05-24T01:07:43.139Z,15.63
2018-05-24T01:08:14.352Z,14.30
2018-05-24T01:08:45.560Z,14.75
2018-05-24T01:09:16.777Z,15.57
2018-05-24T01:09:47.990Z,14.50
2018-05-24T01:10:19.248Z,14.65
2018-05-24T01:10:50.500Z,15.50
2018-05-24T01:11:21.694Z,15.48
2018-05-24T01:11:52.913Z,15.95
2018-05-24T01:12:24.121Z,15.90
2018-05-24T01:12:55.378Z,17.75
2018-05-24T01:13:26.603Z,18.58
2018-05-24T01:13:57.879Z,18.37
2018-05-24T01:14:29.099Z,19.30
2018-05-24T01:15:00.319Z,21.33
2018-05-24T01:15:31.593Z,19.85
2018-05-24T01:16:02.804Z,20.05
2018-05-24T01:16:34.013Z,20.35
2018-05-24T01:17:05.275Z,20.40
2018-05-24T01:17:36.489Z,20.95
2018-05-24T01:18:07.751Z,20.23
2018-05-24T01:18:38.978Z,20.27
2018-05-24T01:19:10.201Z,21.12
2018-05-24T01:19:41.456Z,22.58
2018-05-24T01:20:12.670Z,21.17
2018-05-24T01:20:43.949Z,21.10
2018-05-24T01:21:15.164Z,21.58
2018-05-24T01:21:46.378Z,19.12
2018-05-24T01:22:17.590Z,19.75
2018-05-24T01:22:48.831Z,19.33
2018-05-24T01:23:20.059Z,20.25
2018-05-24T01:23:51.296Z,20.42
2018-05-24T01:24:22.589Z,21.30
2018-05-24T01:24:53.871Z,20.70
2018-05-24T01:25:25.053Z,22.60
2018-05-24T01:25:56.299Z,22.48
2018-05-24T01:26:27.515Z,21.60
2018-05-24T01:26:58.735Z,21.40
2018-05-24T01:27:29.949Z,21.30
2018-05-24T01:28:01.230Z,22.52
2018-05-24T01:28:32.441Z,22.35
2018-05-24T01:29:03.670Z,21.48
2018-05-24T01:29:34.882Z,22.23
2018-05-24T01:30:06.083Z,20.45
2018-05-24T01:30:37.292Z,20.05
2018-05-24T01:31:08.527Z,22.10
2018-05-24T01:31:39.750Z,21.77
2018-05-24T01:32:10.965Z,21.77
2018-05-24T01:32:42.180Z,19.77
2018-05-24T01:33:13.440Z,21.70
2018-05-24T01:33:44.653Z,23.75
2018-05-24T01:34:15.882Z,23.30
2018-05-24T01:34:47.102Z,23.20
2018-05-24T01:35:18.366Z,23.40
2018-05-24T01:35:49.576Z,21.85
2018-05-24T01:36:20.787Z,22.25
2018-05-24T01:36:52.006Z,24.45
2018-05-24T01:37:23.233Z,23.17
2018-05-24T01:37:54.446Z,23.60
2018-05-24T01:38:25.638Z,22.85
2018-05-24T01:38:56.850Z,23.02
2018-05-24T01:39:28.064Z,23.38
2018-05-24T01:39:59.282Z,24.25
2018-05-24T01:40:30.541Z,25.20
2018-05-24T01:41:01.754Z,25.80
2018-05-24T01:41:32.965Z,26.40
2018-05-24T01:42:04.229Z,25.48
2018-05-24T01:42:35.437Z,26.00
2018-05-24T01:43:06.644Z,24.15
2018-05-24T01:43:37.868Z,23.33
2018-05-24T01:44:09.081Z,23.40
2018-05-24T01:44:40.305Z,22.58
2018-05-24T01:45:11.522Z,20.98
2018-05-24T01:45:42.769Z,21.85
2018-05-24T01:46:14.001Z,21.60
2018-05-24T01:46:45.216Z,21.55
2018-05-24T01:47:16.471Z,21.40
2018-05-24T01:47:47.681Z,21.67
2018-05-24T01:48:18.933Z,17.92
2018-05-24T01:48:50.173Z,19.60
2018-05-24T01:49:21.410Z,17.50
2018-05-24T01:49:52.641Z,18.80
2018-05-24T01:50:23.914Z,21.27
2018-05-24T01:50:55.136Z,20.85
2018-05-24T01:51:26.341Z,20.55
2018-05-24T01:51:57.554Z,20.25
2018-05-24T01:52:28.773Z,21.62
2018-05-24T01:52:59.971Z,21.75
2018-05-24T01:53:31.201Z,21.05
2018-05-24T01:54:02.423Z,22.60
2018-05-24T01:54:33.628Z,24.63
2018-05-24T01:55:04.841Z,26.05
2018-05-24T01:55:36.097Z,26.65
2018-05-24T01:56:07.415Z,23.98
2018-05-24T01:56:38.611Z,23.83
2018-05-24T01:57:09.869Z,23.40
2018-05-24T01:57:41.084Z,20.77
2018-05-24T01:58:12.308Z,22.80
2018-05-24T01:58:43.585Z,22.45
2018-05-24T01:59:14.805Z,22.77
2018-05-24T01:59:46.030Z,21.25
2018-05-24T02:00:17.302Z,22.17
2018-05-24T02:00:48.508Z,23.83
2018-05-24T02:01:19.732Z,24.20
2018-05-24T02:01:50.953Z,25.33
2018-05-24T02:02:22.191Z,23.90
2018-05-24T02:02:53.452Z,23.25
2018-05-24T02:03:24.665Z,25.45
2018-05-24T02:03:55.877Z,22.35
2018-05-24T02:04:27.097Z,20.77
2018-05-24T02:04:58.312Z,21.67
2018-05-24T02:05:29.529Z,21.87
2018-05-24T02:06:00.744Z,22.92
2018-05-24T02:06:31.956Z,23.80
2018-05-24T02:07:03.170Z,21.33
2018-05-24T02:07:34.442Z,22.52
2018-05-24T02:08:05.652Z,22.87
2018-05-24T02:08:36.879Z,23.05
2018-05-24T02:09:08.135Z,24.42
2018-05-24T02:09:39.436Z,23.12
2018-05-24T02:10:10.600Z,21.75
2018-05-24T02:10:41.809Z,21.92
2018-05-24T02:11:13.016Z,22.25
2018-05-24T02:11:44.257Z,21.55
2018-05-24T02:12:15.474Z,21.83
2018-05-24T02:12:46.684Z,21.30
2018-05-24T02:13:17.889Z,20.55
2018-05-24T02:13:49.105Z,19.35
2018-05-24T02:14:20.360Z,19.87
2018-05-24T02:14:51.576Z,19.73
2018-05-24T02:15:22.806Z,19.45
2018-05-24T02:15:54.009Z,18.02
2018-05-24T02:16:25.236Z,18.73
2018-05-24T02:16:56.434Z,19.80
2018-05-24T02:17:27.651Z,20.88
2018-05-24T02:17:58.879Z,17.85
2018-05-24T02:18:30.115Z,21.73
2018-05-24T02:19:01.339Z,19.48
2018-05-24T02:19:32.601Z,18.17
2018-05-24T02:20:03.818Z,17.60
2018-05-24T02:20:35.029Z,17.80
2018-05-24T02:21:06.244Z,20.58
2018-05-24T02:21:37.470Z,20.37
2018-05-24T02:22:08.677Z,21.35
2018-05-24T02:22:39.925Z,22.70
2018-05-24T02:23:11.133Z,23.38
2018-05-24T02:23:42.419Z,24.00
2018-05-24T02:24:13.703Z,25.52
2018-05-24T02:24:44.977Z,24.77
2018-05-24T02:25:16.185Z,25.52
2018-05-24T02:25:47.421Z,25.15
2018-05-24T02:26:18.712Z,23.95
2018-05-24T02:26:49.973Z,25.33
2018-05-24T02:27:21.196Z,25.60
2018-05-24T02:27:52.405Z,24.37
2018-05-24T02:28:23.613Z,25.67
2018-05-24T02:28:54.902Z,25.45
2018-05-24T02:29:26.202Z,26.10
2018-05-24T02:29:57.417Z,26.87
2018-05-24T02:30:28.647Z,24.20
2018-05-24T02:30:59.870Z,22.87
2018-05-24T02:31:31.082Z,26.17
2018-05-24T02:32:02.299Z,22.45
2018-05-24T02:32:33.525Z,25.05
2018-05-24T02:33:04.734Z,22.52
2018-05-24T02:33:36.008Z,25.25
2018-05-24T02:34:07.231Z,22.73
2018-05-24T02:34:38.463Z,24.05
2018-05-24T02:35:09.690Z,22.73
2018-05-24T02:35:40.916Z,24.98
2018-05-24T02:36:12.131Z,22.37
2018-05-24T02:36:43.338Z,22.62
2018-05-24T02:37:14.557Z,22.25
2018-05-24T02:37:45.826Z,23.15
2018-05-24T02:38:17.037Z,21.37
2018-05-24T02:38:48.351Z,20.25
2018-05-24T02:39:19.570Z,21.25
2018-05-24T02:39:50.786Z,20.17
2018-05-24T02:40:21.982Z,19.02
2018-05-24T02:40:53.194Z,19.20
2018-05-24T02:41:24.409Z,18.83
2018-05-24T02:41:55.625Z,18.62
2018-05-24T02:42:26.858Z,18.42
2018-05-24T02:42:58.182Z,19.95
2018-05-24T02:43:29.413Z,18.75
2018-05-24T02:44:00.702Z,18.27
2018-05-24T02:44:31.930Z,18.85
2018-05-24T02:45:03.205Z,17.55
2018-05-24T02:45:34.415Z,18.20
2018-05-24T02:46:05.707Z,18.50
2018-05-24T02:46:36.875Z,19.08
2018-05-24T02:47:08.084Z,18.00
2018-05-24T02:47:39.294Z,18.15
2018-05-24T02:48:10.528Z,18.08
2018-05-24T02:48:41.738Z,18.35
2018-05-24T02:49:12.946Z,18.35
2018-05-24T02:49:44.165Z,17.45
2018-05-24T02:50:15.398Z,17.73
2018-05-24T02:50:46.605Z,18.10
2018-05-24T02:51:17.818Z,17.80
2018-05-24T02:51:50.343Z,17.98
2018-05-24T02:52:21.553Z,16.55
2018-05-24T02:52:52.785Z,17.48
2018-05-24T02:53:24.022Z,16.70
2018-05-24T02:53:55.241Z,17.37
2018-05-24T02:54:26.462Z,16.27
2018-05-24T02:54:57.690Z,16.12
2018-05-24T02:55:28.956Z,18.00
2018-05-24T02:56:00.266Z,17.20
2018-05-24T02:56:31.481Z,16.90
2018-05-24T02:57:02.701Z,17.67
2018-05-24T02:57:33.929Z,17.95
2018-05-24T02:58:05.167Z,18.83
2018-05-24T02:58:36.428Z,18.80
2018-05-24T02:59:07.653Z,17.90
2018-05-24T02:59:38.889Z,18.62
2018-05-24T03:00:10.096Z,18.55
2018-05-24T03:00:41.354Z,16.23
2018-05-24T03:01:12.566Z,16.70
2018-05-24T03:01:43.797Z,16.25
2018-05-24T03:02:15.010Z,15.82
2018-05-24T03:02:46.246Z,16.95
2018-05-24T03:03:17.521Z,16.25
2018-05-24T03:03:48.734Z,17.00
2018-05-24T03:04:20.008Z,15.90
2018-05-24T03:04:51.222Z,16.05
2018-05-24T03:05:22.442Z,17.67
2018-05-24T03:05:53.662Z,18.42
2018-05-24T03:06:24.890Z,20.42
2018-05-24T03:06:56.138Z,19.48
2018-05-24T03:07:27.364Z,18.50
2018-05-24T03:07:58.581Z,17.42
2018-05-24T03:08:29.784Z,17.67
2018-05-24T03:09:01.000Z,17.58
2018-05-24T03:09:32.214Z,16.70
2018-05-24T03:10:03.437Z,16.55
2018-05-24T03:10:34.662Z,16.98
2018-05-24T03:11:05.904Z,15.52
2018-05-24T03:11:37.112Z,17.10
2018-05-24T03:12:08.364Z,18.55
2018-05-24T03:12:39.575Z,18.52
2018-05-24T03:13:10.789Z,18.25
2018-05-24T03:13:42.001Z,18.77
2018-05-24T03:14:13.273Z,18.15
2018-05-24T03:14:44.489Z,18.42
2018-05-24T03:15:15.705Z,19.62
2018-05-24T03:15:46.918Z,19.48
2018-05-24T03:16:18.169Z,20.85
2018-05-24T03:16:49.385Z,18.87
2018-05-24T03:17:20.634Z,17.00
2018-05-24T03:17:51.845Z,18.55
2018-05-24T03:18:23.061Z,18.35
2018-05-24T03:18:54.297Z,19.20
2018-05-24T03:19:25.554Z,18.30
2018-05-24T03:19:56.765Z,17.17
2018-05-24T03:20:27.987Z,17.50
2018-05-24T03:20:59.198Z,19.85
2018-05-24T03:21:30.409Z,18.58
2018-05-24T03:22:01.617Z,17.87
2018-05-24T03:22:32.824Z,19.35
2018-05-24T03:23:04.070Z,17.73
2018-05-24T03:23:35.285Z,17.83
2018-05-24T03:24:06.513Z,19.00
2018-05-24T03:24:37.740Z,17.62
2018-05-24T03:25:08.962Z,19.23
2018-05-24T03:25:40.185Z,18.95
2018-05-24T03:26:11.413Z,17.12
2018-05-24T03:26:42.635Z,16.73
2018-05-24T03:27:13.850Z,16.33
2018-05-24T03:27:45.093Z,16.08
2018-05-24T03:28:16.304Z,16.60
2018-05-24T03:28:48.261Z,17.77
2018-05-24T03:29:19.501Z,16.85
2018-05-24T03:29:50.710Z,17.02
2018-05-24T03:30:21.925Z,16.65
2018-05-24T03:30:53.183Z,18.25
2018-05-24T03:31:24.395Z,18.05
2018-05-24T03:31:56.225Z,17.23
2018-05-24T03:32:27.465Z,18.05
2018-05-24T03:32:58.679Z,16.67
2018-05-24T03:33:29.893Z,16.33
2018-05-24T03:34:01.145Z,17.48
2018-05-24T03:34:32.358Z,18.05
2018-05-24T03:35:03.768Z,17.48
2018-05-24T03:35:34.985Z,17.42
2018-05-24T03:36:06.207Z,17.40
2018-05-24T03:36:37.444Z,17.20
2018-05-24T03:37:08.664Z,16.48
2018-05-24T03:37:39.877Z,17.75
2018-05-24T03:38:11.091Z,14.38
2018-05-24T03:38:42.357Z,15.23
2018-05-24T03:39:13.621Z,15.20
2018-05-24T03:39:44.830Z,15.98
2018-05-24T03:40:16.051Z,15.45
2018-05-24T03:40:47.263Z,16.00
2018-05-24T03:41:18.499Z,15.55
2018-05-24T03:41:49.712Z,16.90
2018-05-24T03:42:21.324Z,16.83
2018-05-24T03:42:52.534Z,16.08
2018-05-24T03:43:23.744Z,16.02
2018-05-24T03:43:55.000Z,16.65
2018-05-24T03:44:26.268Z,16.27
2018-05-24T03:44:57.486Z,16.30
2018-05-24T03:45:28.701Z,16.55
2018-05-24T03:45:59.911Z,17.35
2018-05-24T03:46:31.179Z,17.05
2018-05-24T03:47:02.385Z,18.12
2018-05-24T03:47:33.605Z,16.52
2018-05-24T03:48:04.809Z,16.12
2018-05-24T03:48:36.041Z,16.23
2018-05-24T03:49:07.282Z,17.52
2018-05-24T03:49:38.496Z,16.55
2018-05-24T03:50:09.724Z,17.20
2018-05-24T03:50:40.947Z,17.83
2018-05-24T03:51:12.162Z,17.45
2018-05-24T03:51:43.417Z,17.83
2018-05-24T03:52:14.769Z,16.85
2018-05-24T03:52:45.914Z,17.30
2018-05-24T03:53:17.132Z,17.37
2018-05-24T03:53:49.113Z,15.77
2018-05-24T03:54:20.336Z,15.73
2018-05-24T03:54:51.589Z,14.00
2018-05-24T03:55:22.805Z,13.48
2018-05-24T03:55:54.016Z,14.30
2018-05-24T03:56:25.256Z,14.45
2018-05-24T03:56:56.513Z,15.63
2018-05-24T03:57:27.741Z,14.98
2018-05-24T03:57:58.950Z,14.32
2018-05-24T03:58:30.272Z,14.77
2018-05-24T03:59:01.485Z,15.85
2018-05-24T03:59:33.669Z,14.93
2018-05-24T04:00:04.900Z,14.23
2018-05-24T04:00:36.194Z,14.73
2018-05-24T04:01:07.980Z,14.70
2018-05-24T04:01:39.189Z,16.33
2018-05-24T04:02:10.449Z,15.48
2018-05-24T04:02:41.679Z,16.12
2018-05-24T04:03:12.900Z,16.10
2018-05-24T04:03:44.105Z,15.88
2018-05-24T04:04:15.377Z,16.40
2018-05-24T04:04:46.597Z,16.00
2018-05-24T04:05:17.804Z,16.15
2018-05-24T04:05:49.088Z,16.60
2018-05-24T04:06:20.257Z,17.27
2018-05-24T04:06:51.481Z,16.33
2018-05-24T04:07:22.734Z,18.58
2018-05-24T04:07:53.945Z,16.98
2018-05-24T04:08:25.186Z,18.70
2018-05-24T04:08:56.401Z,17.50
2018-05-24T04:09:27.501Z,17.87
2018-05-24T04:09:58.674Z,18.62
2018-05-24T04:10:29.893Z,18.67
2018-05-24T04:11:01.161Z,19.33
2018-05-24T04:11:32.385Z,19.75
2018-05-24T04:12:03.656Z,20.45
2018-05-24T04:12:34.896Z,20.17
2018-05-24T04:13:06.125Z,19.27
2018-05-24T04:13:37.330Z,20.48
2018-05-24T04:14:08.554Z,20.17
2018-05-24T04:14:39.755Z,22.10
2018-05-24T04:15:10.961Z,20.90
2018-05-24T04:15:42.181Z,20.75
2018-05-24T04:16:13.392Z,21.90
2018-05-24T04:16:44.637Z,22.05
2018-05-24T04:17:15.855Z,22.85
2018-05-24T04:17:47.072Z,22.33
2018-05-24T04:18:18.290Z,22.73
2018-05-24T04:18:49.531Z,21.52
2018-05-24T04:19:20.741Z,22.15
2018-05-24T04:19:51.965Z,22.73
2018-05-24T04:20:23.167Z,23.67
2018-05-24T04:20:54.413Z,21.90
2018-05-24T04:21:25.686Z,21.62
2018-05-24T04:21:56.902Z,21.85
2018-05-24T04:22:28.123Z,22.67
2018-05-24T04:22:59.337Z,23.83
2018-05-24T04:23:30.555Z,21.92
2018-05-24T04:24:01.852Z,22.58
2018-05-24T04:24:33.069Z,23.85
2018-05-24T04:25:04.318Z,23.87
2018-05-24T04:25:35.538Z,23.23
2018-05-24T04:26:06.823Z,22.75
2018-05-24T04:26:38.061Z,21.35
2018-05-24T04:27:09.332Z,21.17
2018-05-24T04:27:40.557Z,21.35
2018-05-24T04:28:11.769Z,22.48
2018-05-24T04:28:43.002Z,22.05
2018-05-24T04:29:14.221Z,21.85
2018-05-24T04:29:45.438Z,22.45
2018-05-24T04:30:16.648Z,22.50
2018-05-24T04:30:48.732Z,21.05
2018-05-24T04:31:19.957Z,21.15
2018-05-24T04:31:51.169Z,19.40
2018-05-24T04:32:22.433Z,21.85
2018-05-24T04:32:53.646Z,22.15
2018-05-24T04:33:24.905Z,21.75
2018-05-24T04:33:56.117Z,20.20
2018-05-24T04:34:27.316Z,20.52
2018-05-24T04:34:58.535Z,19.77
2018-05-24T04:35:29.753Z,20.65
2018-05-24T04:36:01.012Z,20.65
2018-05-24T04:36:32.221Z,21.85
2018-05-24T04:37:03.433Z,21.37
2018-05-24T04:37:34.657Z,22.58
2018-05-24T04:38:05.869Z,21.20
2018-05-24T04:38:37.137Z,22.08
2018-05-24T04:39:08.353Z,21.98
2018-05-24T04:39:39.565Z,21.60
2018-05-24T04:40:10.777Z,22.05
2018-05-24T04:40:42.006Z,21.37
2018-05-24T04:41:13.302Z,21.98
2018-05-24T04:41:44.522Z,21.60
2018-05-24T04:42:15.732Z,20.77
2018-05-24T04:42:46.947Z,19.60
2018-05-24T04:43:18.175Z,22.20
2018-05-24T04:43:49.400Z,21.25
2018-05-24T04:44:20.616Z,21.30
2018-05-24T04:44:51.856Z,19.70
2018-05-24T04:45:23.152Z,20.10
2018-05-24T04:45:54.333Z,20.17
2018-05-24T04:46:25.597Z,20.33
2018-05-24T04:46:56.821Z,21.02
2018-05-24T04:47:28.036Z,21.12
2018-05-24T04:47:59.276Z,19.65
2018-05-24T04:48:30.489Z,20.25
2018-05-24T04:49:01.697Z,18.87
2018-05-24T04:49:32.911Z,18.67
2018-05-24T04:50:04.133Z,20.08
2018-05-24T04:50:35.341Z,19.70
2018-05-24T04:51:06.565Z,19.15
2018-05-24T04:51:37.812Z,20.17
2018-05-24T04:52:09.043Z,19.75
2018-05-24T04:52:40.299Z,20.75
2018-05-24T04:53:11.513Z,20.15
2018-05-24T04:53:42.799Z,20.10
2018-05-24T04:54:14.025Z,20.42
2018-05-24T04:54:45.238Z,21.50
2018-05-24T04:55:16.461Z,21.52
2018-05-24T04:55:47.727Z,20.35
2018-05-24T04:56:18.977Z,20.17
2018-05-24T04:56:50.221Z,20.15
2018-05-24T04:57:21.435Z,20.67
2018-05-24T04:57:52.654Z,19.37
2018-05-24T04:58:23.912Z,19.45
2018-05-24T04:58:55.159Z,19.48
2018-05-24T04:59:26.372Z,20.95
2018-05-24T04:59:57.586Z,19.60
2018-05-24T05:00:28.805Z,20.45
2018-05-24T05:01:00.027Z,21.12
2018-05-24T05:01:31.292Z,19.67
2018-05-24T05:02:02.821Z,16.23
2018-05-24T05:02:34.080Z,14.90
2018-05-24T05:03:05.333Z,16.23
2018-05-24T05:03:36.549Z,16.48
2018-05-24T05:04:07.769Z,15.10
2018-05-24T05:04:39.725Z,16.08
2018-05-24T05:05:10.933Z,18.17
2018-05-24T05:05:42.157Z,18.75
2018-05-24T05:06:13.410Z,18.60
2018-05-24T05:06:44.630Z,17.70
2018-05-24T05:07:15.841Z,16.15
2018-05-24T05:07:47.090Z,17.40
2018-05-24T05:08:18.301Z,20.25
2018-05-24T05:08:49.567Z,18.90
2018-05-24T05:09:20.790Z,21.05
2018-05-24T05:09:51.986Z,19.17
2018-05-24T05:10:23.205Z,19.35
2018-05-24T05:10:54.405Z,18.60
2018-05-24T05:11:25.653Z,16.65
2018-05-24T05:11:56.875Z,16.60
2018-05-24T05:12:28.101Z,15.77
2018-05-24T05:12:59.322Z,15.10
2018-05-24T05:13:30.547Z,15.02
2018-05-24T05:14:01.811Z,15.65
2018-05-24T05:14:33.131Z,14.77
2018-05-24T05:15:04.293Z,15.15
2018-05-24T05:15:35.506Z,15.85
2018-05-24T05:16:06.785Z,15.93
2018-05-24T05:16:38.813Z,15.52
2018-05-24T05:17:10.013Z,16.05
2018-05-24T05:17:41.229Z,16.33
2018-05-24T05:18:12.457Z,16.23
2018-05-24T05:18:43.696Z,17.33
2018-05-24T05:19:14.926Z,17.05
2018-05-24T05:19:47.162Z,18.30
2018-05-24T05:20:18.396Z,18.42
2018-05-24T05:20:49.624Z,18.42
2018-05-24T05:21:20.884Z,18.30
2018-05-24T05:21:52.106Z,18.70
2018-05-24T05:22:23.321Z,18.52
2018-05-24T05:22:54.553Z,16.70
2018-05-24T05:23:25.851Z,13.35
2018-05-24T05:23:57.022Z,14.30
2018-05-24T05:24:28.250Z,15.35
2018-05-24T05:24:59.468Z,14.65
2018-05-24T05:25:30.690Z,14.63
2018-05-24T05:26:01.917Z,14.40
2018-05-24T05:26:33.181Z,14.18
2018-05-24T05:27:04.405Z,15.10
2018-05-24T05:27:35.629Z,15.10
2018-05-24T05:28:06.874Z,15.18
2018-05-24T05:28:38.100Z,14.77
2018-05-24T05:29:09.319Z,13.18
2018-05-24T05:29:40.545Z,14.18
2018-05-24T05:30:11.764Z,13.82
2018-05-24T05:30:43.047Z,14.27
2018-05-24T05:31:14.239Z,14.75
2018-05-24T05:31:45.479Z,14.02
2018-05-24T05:32:16.696Z,13.98
2018-05-24T05:32:47.893Z,14.95
2018-05-24T05:33:19.851Z,15.13
2018-05-24T05:33:51.099Z,15.40
2018-05-24T05:34:22.366Z,15.05
2018-05-24T05:34:53.569Z,14.00
2018-05-24T05:35:24.773Z,14.73
2018-05-24T05:35:55.989Z,14.85
2018-05-24T05:36:27.225Z,14.70
2018-05-24T05:36:58.505Z,14.77
2018-05-24T05:37:29.725Z,17.30
2018-05-24T05:38:00.953Z,16.85
2018-05-24T05:38:32.195Z,15.57
2018-05-24T05:39:03.418Z,16.33
2018-05-24T05:39:34.629Z,16.83
2018-05-24T05:40:05.844Z,15.32
2018-05-24T05:40:37.098Z,16.65
2018-05-24T05:41:08.309Z,17.10
2018-05-24T05:41:39.565Z,16.52
2018-05-24T05:42:10.788Z,17.08
2018-05-24T05:42:42.002Z,17.62
2018-05-24T05:43:13.222Z,16.70
2018-05-24T05:43:44.602Z,17.10
2018-05-24T05:44:15.821Z,17.37
2018-05-24T05:44:47.090Z,18.20
2018-05-24T05:45:18.263Z,18.30
2018-05-24T05:45:49.526Z,16.75
2018-05-24T05:46:20.796Z,16.80
2018-05-24T05:46:52.017Z,17.23
2018-05-24T05:47:23.237Z,16.40
2018-05-24T05:47:54.453Z,16.62
2018-05-24T05:48:25.670Z,16.65
2018-05-24T05:48:56.975Z,15.60
2018-05-24T05:49:28.178Z,14.48
2018-05-24T05:49:59.373Z,14.35
2018-05-24T05:50:30.593Z,13.88
2018-05-24T05:51:01.820Z,14.15
2018-05-24T05:51:33.109Z,14.82
2018-05-24T05:52:04.383Z,11.98
2018-05-24T05:52:35.601Z,12.27
2018-05-24T05:53:06.825Z,11.68
2018-05-24T05:53:38.044Z,13.32
2018-05-24T05:54:09.294Z,14.32
2018-05-24T05:54:40.521Z,14.35
2018-05-24T05:55:11.741Z,15.95
2018-05-24T05:55:42.958Z,16.12
2018-05-24T05:56:14.172Z,15.32
2018-05-24T05:56:45.386Z,16.05
2018-05-24T05:57:16.665Z,17.80
2018-05-24T05:57:47.896Z,17.33
2018-05-24T05:58:19.116Z,17.67
2018-05-24T05:58:50.329Z,17.80
2018-05-24T05:59:21.550Z,16.55
2018-05-24T05:59:52.785Z,16.70
2018-05-24T06:00:24.013Z,16.77
2018-05-24T06:00:55.222Z,17.07
2018-05-24T06:01:26.445Z,15.95
2018-05-24T06:01:57.704Z,15.60
2018-05-24T06:02:28.981Z,16.58
2018-05-24T06:03:00.248Z,15.68
2018-05-24T06:03:31.457Z,15.63
2018-05-24T06:04:02.673Z,15.90
2018-05-24T06:04:33.880Z,16.10
2018-05-24T06:05:05.089Z,15.10
2018-05-24T06:05:36.314Z,15.67
2018-05-24T06:06:07.531Z,16.30
2018-05-24T06:06:38.744Z,17.40
2018-05-24T06:07:09.941Z,15.43
2018-05-24T06:07:41.218Z,15.40
2018-05-24T06:08:12.441Z,16.33
2018-05-24T06:08:43.670Z,15.93
2018-05-24T06:09:14.869Z,15.50
2018-05-24T06:09:46.080Z,16.23
2018-05-24T06:10:17.348Z,18.05
2018-05-24T06:10:48.588Z,16.20
2018-05-24T06:11:19.825Z,16.93
2018-05-24T06:11:51.162Z,16.37
2018-05-24T06:12:22.379Z,16.70
2018-05-24T06:12:53.590Z,15.50
2018-05-24T06:13:24.783Z,15.80
2018-05-24T06:13:56.106Z,15.63
2018-05-24T06:14:27.334Z,15.95
2018-05-24T06:14:58.577Z,15.80
2018-05-24T06:15:29.849Z,15.80
2018-05-24T06:16:01.057Z,16.03
2018-05-24T06:16:32.290Z,15.83
2018-05-24T06:17:03.550Z,15.70
2018-05-24T06:17:34.773Z,14.90
2018-05-24T06:18:06.040Z,15.23
2018-05-24T06:18:37.254Z,14.77
2018-05-24T06:19:08.466Z,14.90
2018-05-24T06:19:39.654Z,15.57
2018-05-24T06:20:10.842Z,15.13
2018-05-24T06:20:42.046Z,15.57
2018-05-24T06:21:13.268Z,16.60
2018-05-24T06:21:44.515Z,15.60
2018-05-24T06:22:15.745Z,16.70
2018-05-24T06:22:46.993Z,15.60
2018-05-24T06:23:18.206Z,15.80
2018-05-24T06:23:49.417Z,16.00
2018-05-24T06:24:20.661Z,15.63
2018-05-24T06:24:51.870Z,16.60
2018-05-24T06:25:23.076Z,16.23
2018-05-24T06:25:54.289Z,16.23
2018-05-24T06:26:25.515Z,16.10
2018-05-24T06:26:56.729Z,16.77
2018-05-24T06:27:27.962Z,16.07
2018-05-24T06:27:59.226Z,16.17
2018-05-24T06:28:30.453Z,16.40
2018-05-24T06:29:01.710Z,15.73
2018-05-24T06:29:32.934Z,16.13
2018-05-24T06:30:04.138Z,15.97
2018-05-24T06:30:35.397Z,16.27
2018-05-24T06:31:06.598Z,16.13
2018-05-24T06:31:37.805Z,15.73
2018-05-24T06:32:09.017Z,15.20
2018-05-24T06:32:40.288Z,15.90
2018-05-24T06:33:11.520Z,15.30
2018-05-24T06:33:42.727Z,15.03
2018-05-24T06:34:13.947Z,15.93
2018-05-24T06:34:45.160Z,15.80
2018-05-24T06:35:16.374Z,16.27
2018-05-24T06:35:47.577Z,15.83
2018-05-24T06:36:18.788Z,16.20
2018-05-24T06:36:50.017Z,15.30
2018-05-24T06:37:21.261Z,15.53
2018-05-24T06:37:52.532Z,15.57
2018-05-24T06:38:23.750Z,16.20
2018-05-24T06:38:54.968Z,16.47
2018-05-24T06:39:26.176Z,16.63
2018-05-24T06:39:57.399Z,17.33
2018-05-24T06:40:28.629Z,17.30
2018-05-24T06:40:59.848Z,17.27
2018-05-24T06:41:31.052Z,17.67
2018-05-24T06:42:02.260Z,18.43